Time;durP1;ratioP1;P1;durP2;ratioP2;P2;SDS_P1;SDS_P2;PMS_P1;PMS_P2;Temp;Humidity;BMP_temperature;BMP_pressure;BME280_temperature;BME280_humidity;BME280_pressure;Samples;Min_cycle;Max_cycle;Signal;HPM_P1;HPM_P2
2022/06/27 00:00:22;;;;;;;9.20;6.38;;;;;;;;;;5017406;28;20160;-75
2022/06/27 00:02:48;;;;;;;10.43;6.78;;;;;;;;;;5019171;28;20029;-75
2022/06/27 00:05:13;;;;;;;11.00;6.72;;;;;;;;;;5020316;28;20488;-74
2022/06/27 00:07:39;;;;;;;9.45;7.05;;;;;;;;;;5022985;28;20066;-74
2022/06/27 00:10:04;;;;;;;8.85;6.18;;;;;;;;;;5014795;28;20025;-75
2022/06/27 00:12:29;;;;;;;9.45;6.90;;;;;;;;;;5017816;28;20067;-75
2022/06/27 00:14:55;;;;;;;11.70;7.05;;;;;;;;;;5018580;28;20042;-75
2022/06/27 00:17:20;;;;;;;10.73;6.70;;;;;;;;;;5020369;28;20046;-75
2022/06/27 00:19:45;;;;;;;9.53;6.70;;;;;;;;;;5019453;28;20430;-75
2022/06/27 00:22:10;;;;;;;10.13;6.23;;;;;;;;;;5019965;28;20052;-75
2022/06/27 00:24:35;;;;;;;12.73;7.37;;;;;;;;;;5020449;28;20374;-75
2022/06/27 00:27:01;;;;;;;10.03;6.67;;;;;;;;;;5020574;28;20281;-75
2022/06/27 00:29:26;;;;;;;10.07;6.78;;;;;;;;;;5018894;28;20560;-75
2022/06/27 00:31:52;;;;;;;9.48;6.53;;;;;;;;;;5017287;28;20033;-75
2022/06/27 00:34:17;;;;;;;9.47;6.73;;;;;;;;;;5022062;28;20521;-75
2022/06/27 00:36:42;;;;;;;8.67;6.90;;;;;;;;;;5018199;28;20446;-75
2022/06/27 00:39:07;;;;;;;8.90;6.72;;;;;;;;;;5017784;28;20108;-75
2022/06/27 00:41:33;;;;;;;10.30;6.77;;;;;;;;;;5017809;28;20060;-76
2022/06/27 00:43:58;;;;;;;9.07;6.97;;;;;;;;;;5017260;28;20392;-75
2022/06/27 00:46:23;;;;;;;12.73;6.77;;;;;;;;;;5019302;28;20035;-75
2022/06/27 00:48:48;;;;;;;14.77;8.40;;;;;;;;;;5014512;28;20033;-75
2022/06/27 00:51:13;;;;;;;9.73;7.50;;;;;;;;;;5018015;28;20037;-76
2022/06/27 00:53:39;;;;;;;11.43;7.37;;;;;;;;;;5021491;28;20021;-75
2022/06/27 00:56:04;;;;;;;10.85;7.70;;;;;;;;;;5017876;28;20785;-75
2022/06/27 00:58:29;;;;;;;11.32;7.60;;;;;;;;;;5018477;28;20653;-75
2022/06/27 01:00:55;;;;;;;11.80;7.53;;;;;;;;;;5019828;28;20049;-75
2022/06/27 01:03:20;;;;;;;10.23;7.67;;;;;;;;;;5019634;28;20772;-75
2022/06/27 01:05:54;;;;;;;13.33;7.50;;;;;;;;;;5017827;28;20278;-75
2022/06/27 01:08:19;;;;;;;;;;;;;;;;;;5018672;28;20370;-74
2022/06/27 01:10:44;;;;;;;11.60;7.68;;;;;;;;;;5017064;28;19913;-75
2022/06/27 01:13:10;;;;;;;11.38;7.57;;;;;;;;;;5022813;28;20096;-75
2022/06/27 01:15:35;;;;;;;9.95;7.25;;;;;;;;;;5016920;28;20724;-75
2022/06/27 01:18:00;;;;;;;8.98;7.00;;;;;;;;;;5018165;28;20067;-75
2022/06/27 01:20:26;;;;;;;14.50;7.05;;;;;;;;;;5017832;28;20104;-75
2022/06/27 01:22:51;;;;;;;10.68;6.80;;;;;;;;;;5026263;28;20056;-75
2022/06/27 01:25:18;;;;;;;13.60;7.20;;;;;;;;;;5018432;28;20064;-75
2022/06/27 01:27:43;;;;;;;14.82;7.80;;;;;;;;;;5018834;28;20040;-75
2022/06/27 01:30:08;;;;;;;10.85;6.97;;;;;;;;;;5019148;28;20026;-75
2022/06/27 01:32:34;;;;;;;11.90;7.78;;;;;;;;;;5021060;28;20025;-76
2022/06/27 01:34:59;;;;;;;9.20;7.23;;;;;;;;;;5017285;28;20433;-75
2022/06/27 01:37:24;;;;;;;8.43;7.20;;;;;;;;;;5017573;28;20385;-76
2022/06/27 01:39:49;;;;;;;9.73;7.23;;;;;;;;;;5016889;28;20274;-76
2022/06/27 01:42:14;;;;;;;11.50;8.27;;;;;;;;;;5018785;28;20040;-76
2022/06/27 01:44:40;;;;;;;10.23;7.60;;;;;;;;;;5021209;28;20376;-75
2022/06/27 01:47:08;;;;;;;11.45;7.47;;;;;;;;;;5019571;28;21042;-75
2022/06/27 01:49:34;;;;;;;10.43;7.43;;;;;;;;;;5013821;28;20037;-75
2022/06/27 01:52:01;;;;;;;11.82;7.93;;;;;;;;;;5021329;28;20083;-76
2022/06/27 01:54:27;;;;;;;10.20;7.28;;;;;;;;;;5014539;28;20026;-76
2022/06/27 01:56:53;;;;;;;12.02;7.28;;;;;;;;;;5014959;28;20059;-75
2022/06/27 01:59:22;;;;;;;12.93;7.47;;;;;;;;;;5015743;28;20025;-76
2022/06/27 02:01:47;;;;;;;9.82;7.57;;;;;;;;;;5020199;28;20038;-75
2022/06/27 02:04:13;;;;;;;11.37;7.60;;;;;;;;;;5014908;28;20404;-76
2022/06/27 02:06:38;;;;;;;10.52;7.63;;;;;;;;;;5018172;28;20816;-76
2022/06/27 02:09:10;;;;;;;10.45;7.00;;;;;;;;;;5016399;28;20480;-75
2022/06/27 02:11:36;;;;;;;11.80;7.70;;;;;;;;;;5022970;28;20033;-76
2022/06/27 02:14:01;;;;;;;12.40;7.68;;;;;;;;;;5015986;28;20029;-76
2022/06/27 02:16:26;;;;;;;12.07;7.37;;;;;;;;;;5021842;28;20029;-75
2022/06/27 02:18:52;;;;;;;11.77;8.13;;;;;;;;;;5019666;28;20306;-76
2022/06/27 02:21:19;;;;;;;12.20;8.35;;;;;;;;;;5023493;28;20029;-76
2022/06/27 02:23:44;;;;;;;10.77;7.35;;;;;;;;;;5024519;28;20029;-75
2022/06/27 02:26:11;;;;;;;11.65;7.38;;;;;;;;;;5022996;28;20025;-76
2022/06/27 02:28:36;;;;;;;10.10;7.45;;;;;;;;;;5023193;28;20022;-76
2022/06/27 02:31:02;;;;;;;12.15;7.22;;;;;;;;;;5023624;28;20457;-76
2022/06/27 02:33:34;;;;;;;10.27;6.88;;;;;;;;;;5026721;28;20034;-75
2022/06/27 02:36:00;;;;;;;14.60;7.72;;;;;;;;;;5022245;28;20076;-75
2022/06/27 02:38:26;;;;;;;11.70;7.80;;;;;;;;;;5020530;28;20030;-76
2022/06/27 02:40:51;;;;;;;10.75;7.78;;;;;;;;;;5024717;28;20025;-75
2022/06/27 02:43:17;;;;;;;9.98;8.27;;;;;;;;;;5021810;28;20637;-75
2022/06/27 02:45:43;;;;;;;14.95;7.95;;;;;;;;;;5016642;28;20490;-76
2022/06/27 02:48:09;;;;;;;13.48;8.15;;;;;;;;;;5023210;28;20053;-75
2022/06/27 02:50:37;;;;;;;11.77;8.02;;;;;;;;;;5022078;28;20044;-76
2022/06/27 02:53:05;;;;;;;10.60;7.60;;;;;;;;;;5019582;28;20025;-76
2022/06/27 02:55:40;;;;;;;8.27;6.95;;;;;;;;;;5020305;28;20032;-75
2022/06/27 02:58:10;;;;;;;11.98;7.10;;;;;;;;;;5020235;28;20021;-76
2022/06/27 03:00:38;;;;;;;9.85;6.97;;;;;;;;;;5018021;28;20061;-75
2022/06/27 03:03:04;;;;;;;11.13;7.07;;;;;;;;;;5020219;28;20034;-75
2022/06/27 03:05:29;;;;;;;10.68;7.75;;;;;;;;;;5021856;28;20057;-76
2022/06/27 03:07:55;;;;;;;10.43;8.20;;;;;;;;;;5024077;28;20064;-75
2022/06/27 03:10:20;;;;;;;12.57;7.87;;;;;;;;;;5016744;28;20025;-76
2022/06/27 03:12:46;;;;;;;12.35;8.70;;;;;;;;;;5020567;28;20352;-75
2022/06/27 03:15:12;;;;;;;11.88;7.75;;;;;;;;;;5020504;28;20453;-75
2022/06/27 03:17:37;;;;;;;12.98;8.60;;;;;;;;;;5017088;28;20053;-75
2022/06/27 03:20:02;;;;;;;12.50;8.07;;;;;;;;;;5017301;28;20091;-75
2022/06/27 03:22:27;;;;;;;14.50;9.02;;;;;;;;;;5020253;28;20428;-75
2022/06/27 03:24:52;;;;;;;14.70;8.30;;;;;;;;;;5021073;28;20063;-76
2022/06/27 03:27:18;;;;;;;16.57;9.73;;;;;;;;;;5021220;28;20033;-76
2022/06/27 03:29:43;;;;;;;13.20;9.13;;;;;;;;;;5023138;28;20617;-75
2022/06/27 03:32:08;;;;;;;12.32;8.85;;;;;;;;;;5021369;28;20025;-75
2022/06/27 03:34:33;;;;;;;13.85;9.38;;;;;;;;;;5017806;28;20026;-76
2022/06/27 03:36:59;;;;;;;17.38;8.55;;;;;;;;;;5023207;28;20091;-75
2022/06/27 03:39:25;;;;;;;14.68;8.23;;;;;;;;;;5016458;28;20095;-76
2022/06/27 03:41:50;;;;;;;12.70;8.47;;;;;;;;;;5018997;28;20396;-76
2022/06/27 03:44:15;;;;;;;12.25;8.20;;;;;;;;;;5025438;28;20277;-76
2022/06/27 03:46:41;;;;;;;11.48;8.32;;;;;;;;;;5025168;28;20026;-76
2022/06/27 03:51:50;;;;;;;12.90;10.00;;;;;;;;;;5019673;28;20041;-76
2022/06/27 03:54:15;;;;;;;12.05;7.90;;;;;;;;;;5021521;28;20021;-76
2022/06/27 03:56:41;;;;;;;11.93;8.70;;;;;;;;;;5022917;28;20047;-76
2022/06/27 03:59:07;;;;;;;13.70;8.55;;;;;;;;;;5024792;28;20029;-76
2022/06/27 04:01:32;;;;;;;15.38;8.27;;;;;;;;;;5021194;28;20025;-76
2022/06/27 04:03:57;;;;;;;10.93;8.52;;;;;;;;;;5017815;28;20129;-75
2022/06/27 04:06:22;;;;;;;10.63;7.90;;;;;;;;;;5020836;28;20079;-75
2022/06/27 04:08:48;;;;;;;18.83;8.73;;;;;;;;;;5023733;28;20278;-75
2022/06/27 04:11:13;;;;;;;16.20;8.52;;;;;;;;;;5023446;28;20475;-75
2022/06/27 04:13:38;;;;;;;12.05;7.63;;;;;;;;;;5024483;28;20036;-75
2022/06/27 04:16:04;;;;;;;10.57;8.47;;;;;;;;;;5020741;28;20018;-75
2022/06/27 04:18:29;;;;;;;10.75;8.02;;;;;;;;;;5019526;28;20022;-76
2022/06/27 04:20:54;;;;;;;13.65;8.60;;;;;;;;;;5018344;28;20399;-75
2022/06/27 04:23:19;;;;;;;12.33;8.33;;;;;;;;;;5019782;28;20053;-75
2022/06/27 04:25:44;;;;;;;10.50;8.17;;;;;;;;;;5013124;28;20424;-76
2022/06/27 04:28:10;;;;;;;18.13;8.53;;;;;;;;;;5017637;28;20079;-75
2022/06/27 04:30:35;;;;;;;10.90;8.02;;;;;;;;;;5018380;28;20384;-75
2022/06/27 04:33:01;;;;;;;12.35;7.85;;;;;;;;;;5020979;28;20018;-69
2022/06/27 04:35:26;;;;;;;13.95;8.77;;;;;;;;;;5020718;28;20510;-74
2022/06/27 04:37:53;;;;;;;11.30;8.55;;;;;;;;;;5017892;28;20548;-73
2022/06/27 04:40:19;;;;;;;12.90;9.50;;;;;;;;;;5014226;28;20038;-73
2022/06/27 04:42:44;;;;;;;18.25;10.20;;;;;;;;;;5020940;28;20028;-70
2022/06/27 04:45:12;;;;;;;16.75;10.32;;;;;;;;;;5021178;28;20450;-73
2022/06/27 04:47:38;;;;;;;14.40;10.38;;;;;;;;;;5024831;28;20116;-76
2022/06/27 04:50:04;;;;;;;19.58;11.65;;;;;;;;;;5021860;28;20129;-72
2022/06/27 04:52:29;;;;;;;21.13;11.32;;;;;;;;;;5015378;28;20029;-75
2022/06/27 04:54:55;;;;;;;14.40;10.63;;;;;;;;;;5016283;28;20068;-75
2022/06/27 04:57:20;;;;;;;14.50;9.97;;;;;;;;;;5013531;28;20060;-70
2022/06/27 04:59:45;;;;;;;14.50;9.73;;;;;;;;;;5026742;28;20258;-75
2022/06/27 05:02:10;;;;;;;14.63;10.25;;;;;;;;;;5023059;28;20026;-75
2022/06/27 05:04:35;;;;;;;13.50;9.93;;;;;;;;;;5031465;28;20477;-75
2022/06/27 05:07:01;;;;;;;15.63;10.40;;;;;;;;;;5029201;28;20025;-76
2022/06/27 05:09:26;;;;;;;17.70;10.93;;;;;;;;;;5031965;28;20067;-75
2022/06/27 05:11:54;;;;;;;16.50;10.90;;;;;;;;;;5020699;28;20067;-75
2022/06/27 05:14:20;;;;;;;16.77;10.20;;;;;;;;;;5027732;28;20400;-76
2022/06/27 05:16:45;;;;;;;16.77;10.07;;;;;;;;;;5027160;28;20024;-75
2022/06/27 05:19:11;;;;;;;14.07;8.97;;;;;;;;;;5021740;28;20033;-76
2022/06/27 05:21:36;;;;;;;12.60;9.05;;;;;;;;;;5019745;28;20056;-76
2022/06/27 05:24:02;;;;;;;15.60;10.25;;;;;;;;;;5024066;28;20466;-72
2022/06/27 05:26:28;;;;;;;13.40;9.13;;;;;;;;;;5022485;28;20029;-75
2022/06/27 05:28:54;;;;;;;14.07;9.25;;;;;;;;;;5034969;28;20025;-75
2022/06/27 05:31:20;;;;;;;15.82;9.77;;;;;;;;;;5026644;28;20021;-76
2022/06/27 05:33:45;;;;;;;16.40;10.00;;;;;;;;;;5029580;28;20063;-75
2022/06/27 05:36:10;;;;;;;14.45;10.13;;;;;;;;;;5023923;28;20036;-75
2022/06/27 05:38:36;;;;;;;15.15;10.55;;;;;;;;;;5022416;28;20021;-75
2022/06/27 05:41:02;;;;;;;13.68;11.23;;;;;;;;;;5033988;28;20036;-74
2022/06/27 05:43:27;;;;;;;15.10;10.20;;;;;;;;;;5021758;28;20333;-75
2022/06/27 05:45:53;;;;;;;15.75;10.45;;;;;;;;;;5024027;28;20025;-75
2022/06/27 05:48:19;;;;;;;19.02;11.98;;;;;;;;;;5016809;28;20030;-74
2022/06/27 05:50:44;;;;;;;16.90;12.38;;;;;;;;;;5024232;28;20031;-76
2022/06/27 05:53:09;;;;;;;19.23;11.63;;;;;;;;;;5018842;28;20328;-76
2022/06/27 05:55:35;;;;;;;18.37;11.70;;;;;;;;;;5021001;28;20309;-75
2022/06/27 05:58:02;;;;;;;17.77;11.57;;;;;;;;;;5022341;28;20255;-75
2022/06/27 06:00:28;;;;;;;22.38;12.45;;;;;;;;;;5023122;28;20025;-75
2022/06/27 06:02:55;;;;;;;22.02;12.63;;;;;;;;;;5021865;28;20071;-74
2022/06/27 06:05:20;;;;;;;18.77;12.95;;;;;;;;;;5030203;28;20104;-75
2022/06/27 06:07:46;;;;;;;19.30;13.32;;;;;;;;;;5022285;28;20101;-75
2022/06/27 06:10:12;;;;;;;20.75;13.13;;;;;;;;;;5023153;28;20427;-75
2022/06/27 06:12:37;;;;;;;19.88;13.25;;;;;;;;;;5026465;28;20171;-75
2022/06/27 06:15:03;;;;;;;21.48;12.60;;;;;;;;;;5021226;28;20029;-75
2022/06/27 06:17:29;;;;;;;20.30;12.95;;;;;;;;;;5020428;28;20167;-75
2022/06/27 06:19:54;;;;;;;21.85;14.32;;;;;;;;;;5020651;28;20100;-75
2022/06/27 06:22:20;;;;;;;23.42;13.75;;;;;;;;;;5021310;28;20021;-76
2022/06/27 06:24:47;;;;;;;21.33;14.07;;;;;;;;;;5022561;28;20025;-74
2022/06/27 06:27:13;;;;;;;20.10;13.60;;;;;;;;;;5030925;28;20333;-75
2022/06/27 06:29:39;;;;;;;22.67;14.23;;;;;;;;;;5031168;28;20479;-74
2022/06/27 06:32:05;;;;;;;23.92;14.80;;;;;;;;;;5020262;28;20041;-74
2022/06/27 06:34:30;;;;;;;20.23;13.88;;;;;;;;;;5022859;28;20079;-74
2022/06/27 06:36:55;;;;;;;20.30;13.60;;;;;;;;;;5022941;28;20468;-74
2022/06/27 06:39:20;;;;;;;19.70;14.07;;;;;;;;;;5021204;28;22348;-74
2022/06/27 06:41:46;;;;;;;20.05;12.82;;;;;;;;;;5027352;28;20064;-74
2022/06/27 06:44:11;;;;;;;21.60;13.00;;;;;;;;;;5025429;28;20412;-74
2022/06/27 06:46:37;;;;;;;20.60;13.85;;;;;;;;;;5031380;28;20033;-74
2022/06/27 06:49:02;;;;;;;23.88;14.20;;;;;;;;;;5024589;28;20116;-74
2022/06/27 06:51:34;;;;;;;19.67;14.25;;;;;;;;;;5023868;28;20036;-74
2022/06/27 06:53:59;;;;;;;20.65;13.25;;;;;;;;;;5023587;28;20075;-74
2022/06/27 06:56:24;;;;;;;21.42;13.98;;;;;;;;;;5024006;28;20013;-74
2022/06/27 06:58:49;;;;;;;20.48;12.65;;;;;;;;;;5030348;28;20025;-74
2022/06/27 07:01:15;;;;;;;17.23;12.63;;;;;;;;;;5026563;28;20061;-75
2022/06/27 07:03:40;;;;;;;21.67;12.68;;;;;;;;;;5025781;28;20266;-75
2022/06/27 07:06:06;;;;;;;21.98;12.43;;;;;;;;;;5021324;28;20131;-75
2022/06/27 07:08:33;;;;;;;23.23;13.82;;;;;;;;;;5031442;28;20119;-75
2022/06/27 07:10:59;;;;;;;22.58;13.95;;;;;;;;;;5016363;28;20026;-75
2022/06/27 07:13:25;;;;;;;16.92;12.55;;;;;;;;;;5024291;28;20021;-75
2022/06/27 07:15:50;;;;;;;19.80;13.23;;;;;;;;;;5021339;28;20372;-75
2022/06/27 07:18:17;;;;;;;18.58;13.32;;;;;;;;;;5029446;28;20910;-75
2022/06/27 07:20:43;;;;;;;24.27;12.95;;;;;;;;;;5022471;28;20036;-74
2022/06/27 07:23:09;;;;;;;18.25;12.88;;;;;;;;;;5024350;28;20427;-74
2022/06/27 07:25:35;;;;;;;21.63;14.52;;;;;;;;;;5028410;28;20024;-75
2022/06/27 07:28:00;;;;;;;22.20;12.75;;;;;;;;;;5025851;28;20067;-74
2022/06/27 07:30:25;;;;;;;20.77;13.73;;;;;;;;;;5025376;28;20057;-75
2022/06/27 07:32:51;;;;;;;19.93;13.67;;;;;;;;;;5031226;28;20608;-75
2022/06/27 07:35:17;;;;;;;18.95;13.60;;;;;;;;;;5024671;28;20770;-75
2022/06/27 07:37:48;;;;;;;18.30;12.52;;;;;;;;;;5023966;28;20395;-75
2022/06/27 07:40:14;;;;;;;19.42;13.15;;;;;;;;;;5028615;28;20031;-75
2022/06/27 07:42:40;;;;;;;22.02;14.10;;;;;;;;;;5023949;28;20018;-75
2022/06/27 07:45:07;;;;;;;20.73;14.13;;;;;;;;;;5032372;28;20364;-75
2022/06/27 07:47:33;;;;;;;19.67;12.68;;;;;;;;;;5033293;28;20040;-75
2022/06/27 07:49:58;;;;;;;16.43;12.73;;;;;;;;;;5027769;28;20029;-75
2022/06/27 07:52:23;;;;;;;19.33;14.60;;;;;;;;;;5019823;28;20302;-75
2022/06/27 07:54:49;;;;;;;17.52;12.60;;;;;;;;;;5023970;28;20026;-75
2022/06/27 07:57:14;;;;;;;19.70;12.20;;;;;;;;;;5041345;28;20702;-76
2022/06/27 07:59:40;;;;;;;20.85;13.15;;;;;;;;;;5024062;28;20024;-75
2022/06/27 08:02:06;;;;;;;19.52;13.27;;;;;;;;;;5018596;28;20028;-76
2022/06/27 08:04:32;;;;;;;14.95;10.90;;;;;;;;;;5021231;28;20022;-75
2022/06/27 08:06:57;;;;;;;15.90;12.30;;;;;;;;;;5022801;28;20026;-75
2022/06/27 08:09:22;;;;;;;16.77;12.10;;;;;;;;;;5022325;28;20079;-76
2022/06/27 08:11:48;;;;;;;17.83;11.23;;;;;;;;;;5024921;28;20365;-76
2022/06/27 08:14:16;;;;;;;16.27;11.68;;;;;;;;;;5023928;28;20088;-75
2022/06/27 08:16:41;;;;;;;17.85;11.18;;;;;;;;;;5024811;28;20052;-77
2022/06/27 08:19:07;;;;;;;13.95;10.98;;;;;;;;;;5026312;28;20100;-76
2022/06/27 08:21:35;;;;;;;18.38;11.73;;;;;;;;;;5023178;28;20383;-75
2022/06/27 08:24:02;;;;;;;19.25;11.93;;;;;;;;;;5021217;28;20333;-76
2022/06/27 08:26:27;;;;;;;18.80;12.65;;;;;;;;;;5033963;28;20094;-76
2022/06/27 08:28:54;;;;;;;17.67;12.23;;;;;;;;;;5034153;28;20032;-77
2022/06/27 08:31:19;;;;;;;19.90;12.82;;;;;;;;;;5020815;28;20472;-77
2022/06/27 08:33:45;;;;;;;17.65;11.60;;;;;;;;;;5024574;28;20031;-75
2022/06/27 08:36:12;;;;;;;17.08;10.75;;;;;;;;;;5020690;28;20024;-76
2022/06/27 08:38:42;;;;;;;14.52;10.35;;;;;;;;;;5025284;28;20023;-75
2022/06/27 08:41:08;;;;;;;15.20;10.27;;;;;;;;;;5021458;28;20022;-76
2022/06/27 08:43:33;;;;;;;15.20;10.88;;;;;;;;;;5023300;28;20079;-75
2022/06/27 08:45:59;;;;;;;16.98;11.63;;;;;;;;;;5028996;28;20021;-75
2022/06/27 08:48:24;;;;;;;16.20;11.32;;;;;;;;;;5021151;28;20383;-75
2022/06/27 08:50:50;;;;;;;20.52;12.38;;;;;;;;;;5025065;28;20029;-75
2022/06/27 08:53:17;;;;;;;17.65;10.68;;;;;;;;;;5021291;28;20534;-75
2022/06/27 08:55:46;;;;;;;16.42;10.65;;;;;;;;;;5031335;28;20032;-75
2022/06/27 08:58:12;;;;;;;15.20;10.43;;;;;;;;;;5028684;28;20638;-76
2022/06/27 09:00:41;;;;;;;15.82;9.80;;;;;;;;;;5025414;28;20030;-75
2022/06/27 09:03:07;;;;;;;15.27;10.02;;;;;;;;;;5022659;28;20460;-76
2022/06/27 09:05:33;;;;;;;13.38;9.88;;;;;;;;;;5024891;28;20150;-76
2022/06/27 09:08:01;;;;;;;14.50;9.68;;;;;;;;;;5020801;28;20092;-75
2022/06/27 09:10:29;;;;;;;16.13;10.88;;;;;;;;;;5025458;28;20597;-75
2022/06/27 09:12:58;;;;;;;19.27;10.13;;;;;;;;;;5024733;28;20057;-75
2022/06/27 09:15:29;;;;;;;14.93;9.75;;;;;;;;;;5037564;28;20059;-76
2022/06/27 09:18:03;;;;;;;17.02;11.27;;;;;;;;;;5023164;28;20025;-75
2022/06/27 09:20:44;;;;;;;16.42;10.60;;;;;;;;;;5023283;28;20025;-75
2022/06/27 09:23:25;;;;;;;14.85;11.10;;;;;;;;;;5022405;28;20488;-75
2022/06/27 09:25:56;;;;;;;17.10;11.35;;;;;;;;;;5019829;28;20089;-75
2022/06/27 09:28:22;;;;;;;19.88;10.80;;;;;;;;;;5024912;28;20452;-72
2022/06/27 09:30:47;;;;;;;15.27;10.00;;;;;;;;;;5030446;28;20040;-75
2022/06/27 09:33:12;;;;;;;15.40;10.30;;;;;;;;;;5021200;28;20399;-75
2022/06/27 09:35:39;;;;;;;15.97;10.20;;;;;;;;;;5024943;28;20029;-75
2022/06/27 09:38:06;;;;;;;14.50;10.18;;;;;;;;;;5035087;28;20067;-75
2022/06/27 09:40:33;;;;;;;16.17;10.35;;;;;;;;;;5030505;28;20026;-75
2022/06/27 09:42:58;;;;;;;15.48;10.13;;;;;;;;;;5023474;28;20025;-75
2022/06/27 09:45:24;;;;;;;13.88;10.48;;;;;;;;;;5028314;28;20033;-76
2022/06/27 09:47:55;;;;;;;16.15;9.80;;;;;;;;;;5031270;28;20017;-76
2022/06/27 09:50:21;;;;;;;13.15;9.30;;;;;;;;;;5019401;28;20030;-75
2022/06/27 09:52:46;;;;;;;12.70;8.70;;;;;;;;;;5021030;28;20108;-76
2022/06/27 09:55:13;;;;;;;15.73;10.13;;;;;;;;;;5034729;28;20026;-76
2022/06/27 09:57:38;;;;;;;12.52;8.95;;;;;;;;;;5022636;28;20017;-75
2022/06/27 10:00:06;;;;;;;12.05;8.45;;;;;;;;;;5019963;28;20371;-77
2022/06/27 10:02:32;;;;;;;12.40;8.98;;;;;;;;;;5019261;28;20026;-75
2022/06/27 10:04:58;;;;;;;12.70;9.38;;;;;;;;;;5024201;28;20468;-75
2022/06/27 10:07:25;;;;;;;14.10;8.77;;;;;;;;;;5022310;28;20022;-76
2022/06/27 10:09:53;;;;;;;11.02;7.10;;;;;;;;;;5033679;28;20017;-75
2022/06/27 10:12:23;;;;;;;11.77;6.32;;;;;;;;;;5030736;28;20028;-77
2022/06/27 10:15:06;;;;;;;9.70;7.57;;;;;;;;;;5022645;28;20128;-73
2022/06/27 10:17:33;;;;;;;13.50;8.48;;;;;;;;;;5020954;28;20495;-75
2022/06/27 10:20:06;;;;;;;10.95;7.18;;;;;;;;;;5032233;28;20472;-75
2022/06/27 10:22:31;;;;;;;9.25;6.88;;;;;;;;;;5019251;28;20451;-74
2022/06/27 10:25:16;;;;;;;10.20;7.00;;;;;;;;;;5024921;28;20041;-74
2022/06/27 10:27:41;;;;;;;9.98;7.55;;;;;;;;;;5015662;28;20123;-74
2022/06/27 10:30:30;;;;;;;14.57;7.83;;;;;;;;;;5023743;28;20030;-75
2022/06/27 10:32:56;;;;;;;13.88;8.88;;;;;;;;;;5014419;28;20048;-76
2022/06/27 10:35:24;;;;;;;11.32;7.40;;;;;;;;;;5028148;28;20022;-75
2022/06/27 10:37:49;;;;;;;10.38;7.55;;;;;;;;;;5025443;28;20133;-74
2022/06/27 10:40:20;;;;;;;12.85;7.45;;;;;;;;;;5028309;28;20044;-75
2022/06/27 10:42:49;;;;;;;13.15;7.38;;;;;;;;;;5028880;28;20044;-75
2022/06/27 10:45:22;;;;;;;12.40;7.28;;;;;;;;;;5028436;28;20022;-75
2022/06/27 10:47:47;;;;;;;9.13;6.60;;;;;;;;;;5024468;28;20049;-75
2022/06/27 10:50:14;;;;;;;10.70;7.03;;;;;;;;;;5031977;28;20503;-75
2022/06/27 10:52:39;;;;;;;9.18;6.82;;;;;;;;;;5022106;28;20065;-75
2022/06/27 10:55:23;;;;;;;8.18;5.45;;;;;;;;;;5029609;28;20080;-75
2022/06/27 10:57:48;;;;;;;11.45;6.70;;;;;;;;;;5029467;28;20472;-74
2022/06/27 11:00:34;;;;;;;9.07;6.30;;;;;;;;;;5031847;28;20036;-74
2022/06/27 11:03:00;;;;;;;11.95;6.82;;;;;;;;;;5012842;28;20471;-74
2022/06/27 11:05:26;;;;;;;10.52;6.20;;;;;;;;;;5029993;28;20104;-75
2022/06/27 11:07:53;;;;;;;13.07;6.70;;;;;;;;;;5037289;28;20108;-75
2022/06/27 11:10:18;;;;;;;11.80;7.32;;;;;;;;;;5027672;28;20032;-75
2022/06/27 11:12:43;;;;;;;12.60;7.47;;;;;;;;;;5041207;28;20113;-75
2022/06/27 11:15:09;;;;;;;13.67;8.30;;;;;;;;;;5025738;28;20022;-74
2022/06/27 11:17:34;;;;;;;15.77;8.75;;;;;;;;;;5024527;28;20104;-74
2022/06/27 11:20:09;;;;;;;13.97;7.97;;;;;;;;;;5024242;28;20056;-75
2022/06/27 11:22:35;;;;;;;10.48;7.53;;;;;;;;;;5026434;28;20634;-75
2022/06/27 11:25:01;;;;;;;13.25;7.43;;;;;;;;;;5026359;28;20021;-75
2022/06/27 11:27:42;;;;;;;11.48;7.78;;;;;;;;;;5019793;28;20047;-75
2022/06/27 11:32:51;;;;;;;;;;;;;;;;;;5016729;28;20127;-76
2022/06/27 11:35:16;;;;;;;14.20;9.77;;;;;;;;;;5025018;28;20355;-75
2022/06/27 11:37:41;;;;;;;13.27;8.87;;;;;;;;;;5024922;28;20100;-76
2022/06/27 11:40:07;;;;;;;15.70;10.60;;;;;;;;;;5027331;28;20026;-75
2022/06/27 11:42:39;;;;;;;15.30;10.02;;;;;;;;;;5028892;28;20283;-75
2022/06/27 11:45:09;;;;;;;13.38;9.73;;;;;;;;;;5024561;28;20029;-75
2022/06/27 11:47:35;;;;;;;18.92;10.20;;;;;;;;;;5031330;28;20036;-75
2022/06/27 11:50:01;;;;;;;14.38;10.13;;;;;;;;;;5022012;28;20029;-74
2022/06/27 11:52:34;;;;;;;12.85;9.10;;;;;;;;;;5026616;28;20029;-75
2022/06/27 11:55:06;;;;;;;19.55;11.50;;;;;;;;;;5027794;28;20063;-76
2022/06/27 11:57:34;;;;;;;19.77;11.73;;;;;;;;;;5034801;28;20455;-74
2022/06/27 12:00:00;;;;;;;16.10;11.98;;;;;;;;;;5015922;28;20413;-74
2022/06/27 12:02:28;;;;;;;19.05;12.10;;;;;;;;;;5024781;28;20444;-74
2022/06/27 12:05:03;;;;;;;17.63;12.57;;;;;;;;;;5021920;28;20037;-74
2022/06/27 12:07:29;;;;;;;18.63;11.85;;;;;;;;;;5018502;28;20030;-75
2022/06/27 12:09:54;;;;;;;15.65;10.73;;;;;;;;;;5029295;28;20036;-75
2022/06/27 12:12:20;;;;;;;17.03;10.53;;;;;;;;;;5028668;28;20045;-75
2022/06/27 12:14:46;;;;;;;17.08;12.07;;;;;;;;;;5024632;28;20056;-74
2022/06/27 12:17:11;;;;;;;18.08;11.35;;;;;;;;;;5023907;28;20208;-75
2022/06/27 12:19:36;;;;;;;17.80;11.38;;;;;;;;;;5023757;28;20112;-76
2022/06/27 12:22:02;;;;;;;16.90;11.27;;;;;;;;;;5025251;28;20041;-75
2022/06/27 12:24:27;;;;;;;18.15;10.88;;;;;;;;;;5020818;28;20052;-75
2022/06/27 12:26:52;;;;;;;17.13;11.75;;;;;;;;;;5024946;28;20036;-74
2022/06/27 12:29:17;;;;;;;11.63;8.98;;;;;;;;;;5019717;28;20061;-75
2022/06/27 12:31:43;;;;;;;13.67;9.77;;;;;;;;;;5025723;28;20021;-74
2022/06/27 12:34:08;;;;;;;19.35;10.57;;;;;;;;;;5022691;28;20270;-76
2022/06/27 12:36:34;;;;;;;18.77;10.90;;;;;;;;;;5030206;28;20021;-75
2022/06/27 12:39:00;;;;;;;13.95;9.55;;;;;;;;;;5019256;28;20042;-75
2022/06/27 12:41:25;;;;;;;13.13;9.60;;;;;;;;;;5040282;28;20041;-75
2022/06/27 12:43:51;;;;;;;15.52;10.02;;;;;;;;;;5025050;28;20032;-75
2022/06/27 12:46:17;;;;;;;15.15;10.68;;;;;;;;;;5027281;28;20028;-75
2022/06/27 12:48:42;;;;;;;13.98;9.25;;;;;;;;;;5023001;28;20390;-75
2022/06/27 12:51:08;;;;;;;15.85;9.88;;;;;;;;;;5025135;28;20029;-75
2022/06/27 12:53:33;;;;;;;18.17;7.75;;;;;;;;;;5026759;28;20087;-76
2022/06/27 12:55:59;;;;;;;13.20;7.40;;;;;;;;;;5038064;28;20544;-75
2022/06/27 12:58:24;;;;;;;10.45;7.28;;;;;;;;;;5027493;28;20025;-75
2022/06/27 13:00:50;;;;;;;11.98;7.47;;;;;;;;;;5028704;28;20031;-75
2022/06/27 13:03:15;;;;;;;11.13;7.43;;;;;;;;;;5028650;28;20482;-75
2022/06/27 13:05:41;;;;;;;14.97;9.07;;;;;;;;;;5022571;28;20025;-75
2022/06/27 13:08:07;;;;;;;14.27;9.83;;;;;;;;;;5037501;28;20023;-76
2022/06/27 13:10:33;;;;;;;14.68;8.98;;;;;;;;;;5028063;28;20541;-76
2022/06/27 13:12:58;;;;;;;14.85;9.02;;;;;;;;;;5027094;28;20030;-75
2022/06/27 13:15:23;;;;;;;15.25;8.50;;;;;;;;;;5021849;28;20487;-75
2022/06/27 13:17:48;;;;;;;20.27;9.27;;;;;;;;;;5028759;28;20033;-75
2022/06/27 13:20:14;;;;;;;9.33;6.60;;;;;;;;;;5029961;28;20263;-77
2022/06/27 13:22:39;;;;;;;11.93;6.13;;;;;;;;;;5028784;28;20121;-73
2022/06/27 13:25:05;;;;;;;7.13;4.88;;;;;;;;;;5023789;28;20026;-77
2022/06/27 13:27:30;;;;;;;7.70;5.00;;;;;;;;;;5020995;28;20037;-76
2022/06/27 13:29:55;;;;;;;8.53;4.70;;;;;;;;;;5019148;28;20033;-75
2022/06/27 13:32:20;;;;;;;5.20;3.97;;;;;;;;;;5021861;28;20030;-76
2022/06/27 13:34:46;;;;;;;10.00;3.55;;;;;;;;;;5020517;28;20527;-76
2022/06/27 13:37:11;;;;;;;6.85;2.20;;;;;;;;;;5020453;28;20026;-73
2022/06/27 13:39:36;;;;;;;2.63;2.40;;;;;;;;;;5027964;28;20021;-80
2022/06/27 13:42:03;;;;;;;5.82;2.38;;;;;;;;;;5027634;28;20030;-79
2022/06/27 13:44:29;;;;;;;6.35;2.40;;;;;;;;;;5023330;28;20037;-79
2022/06/27 13:46:54;;;;;;;3.67;2.33;;;;;;;;;;5030387;28;20033;-77
2022/06/27 13:49:19;;;;;;;3.50;2.38;;;;;;;;;;5028212;28;20028;-76
2022/06/27 13:51:44;;;;;;;8.70;2.97;;;;;;;;;;5020469;28;20231;-76
2022/06/27 13:54:10;;;;;;;7.68;2.83;;;;;;;;;;5023261;28;20021;-79
2022/06/27 13:56:35;;;;;;;5.47;2.92;;;;;;;;;;5025905;28;20029;-78
2022/06/27 13:59:02;;;;;;;3.35;2.75;;;;;;;;;;5023426;28;20441;-77
2022/06/27 14:01:27;;;;;;;6.22;3.38;;;;;;;;;;5033079;28;20071;-79
2022/06/27 14:03:52;;;;;;;7.23;3.40;;;;;;;;;;5028902;28;20036;-74
2022/06/27 14:09:02;;;;;;;5.10;3.28;;;;;;;;;;5025984;28;20108;-72
2022/06/27 14:11:27;;;;;;;6.13;3.17;;;;;;;;;;5030169;28;20037;-75
2022/06/27 14:13:53;;;;;;;5.18;3.60;;;;;;;;;;5030108;28;20017;-76
2022/06/27 14:16:20;;;;;;;5.05;3.38;;;;;;;;;;5019616;28;20277;-76
2022/06/27 14:18:46;;;;;;;6.75;3.55;;;;;;;;;;5031226;28;20013;-77
2022/06/27 14:21:11;;;;;;;7.57;4.28;;;;;;;;;;5031372;28;20029;-77
2022/06/27 14:23:36;;;;;;;6.05;3.45;;;;;;;;;;5028124;28;20029;-77
2022/06/27 14:26:01;;;;;;;6.13;4.10;;;;;;;;;;5035615;28;20033;-76
2022/06/27 14:28:27;;;;;;;4.57;4.10;;;;;;;;;;5044649;28;20397;-75
2022/06/27 14:30:52;;;;;;;6.77;3.70;;;;;;;;;;5029408;28;20405;-75